sensor_id;sensor_type;location;lat;lon;timestamp;P1;durP1;ratioP1;P2;durP2;ratioP2
41323;SDS011;27073;51.128;4.220;2022-11-13T00:01:22;19.20;;;16.10;;
41323;SDS011;27073;51.128;4.220;2022-11-13T00:04:08;18.33;;;15.98;;
41323;SDS011;27073;51.128;4.220;2022-11-13T00:06:53;22.50;;;16.65;;
41323;SDS011;27073;51.128;4.220;2022-11-13T00:09:37;19.52;;;16.65;;
41323;SDS011;27073;51.128;4.220;2022-11-13T00:12:22;18.13;;;15.65;;
41323;SDS011;27073;51.128;4.220;2022-11-13T00:15:06;19.65;;;16.40;;
41323;SDS011;27073;51.128;4.220;2022-11-13T00:17:50;17.70;;;14.90;;
41323;SDS011;27073;51.128;4.220;2022-11-13T00:20:35;19.02;;;14.73;;
41323;SDS011;27073;51.128;4.220;2022-11-13T00:23:19;16.13;;;13.45;;
41323;SDS011;27073;51.128;4.220;2022-11-13T00:26:08;16.10;;;14.40;;
41323;SDS011;27073;51.128;4.220;2022-11-13T00:29:00;16.42;;;14.63;;
41323;SDS011;27073;51.128;4.220;2022-11-13T00:31:45;17.00;;;15.15;;
41323;SDS011;27073;51.128;4.220;2022-11-13T00:34:30;19.42;;;15.00;;
41323;SDS011;27073;51.128;4.220;2022-11-13T00:37:14;17.48;;;15.32;;
41323;SDS011;27073;51.128;4.220;2022-11-13T00:39:58;16.95;;;13.93;;
41323;SDS011;27073;51.128;4.220;2022-11-13T00:42:42;16.60;;;14.43;;
41323;SDS011;27073;51.128;4.220;2022-11-13T00:45:26;17.88;;;14.98;;
41323;SDS011;27073;51.128;4.220;2022-11-13T00:48:10;18.67;;;14.90;;
41323;SDS011;27073;51.128;4.220;2022-11-13T00:50:54;15.98;;;13.70;;
41323;SDS011;27073;51.128;4.220;2022-11-13T00:53:39;19.50;;;14.60;;
41323;SDS011;27073;51.128;4.220;2022-11-13T00:56:23;17.27;;;14.45;;
41323;SDS011;27073;51.128;4.220;2022-11-13T00:59:07;18.17;;;14.32;;
41323;SDS011;27073;51.128;4.220;2022-11-13T01:01:51;17.02;;;14.88;;
41323;SDS011;27073;51.128;4.220;2022-11-13T01:04:36;17.95;;;14.57;;
41323;SDS011;27073;51.128;4.220;2022-11-13T01:07:20;19.67;;;15.60;;
41323;SDS011;27073;51.128;4.220;2022-11-13T01:10:04;19.77;;;16.13;;
41323;SDS011;27073;51.128;4.220;2022-11-13T01:12:49;18.67;;;16.08;;
41323;SDS011;27073;51.128;4.220;2022-11-13T01:15:33;20.75;;;16.00;;
41323;SDS011;27073;51.128;4.220;2022-11-13T01:18:17;17.95;;;15.07;;
41323;SDS011;27073;51.128;4.220;2022-11-13T01:21:05;20.45;;;15.07;;
41323;SDS011;27073;51.128;4.220;2022-11-13T01:23:52;19.77;;;16.52;;
41323;SDS011;27073;51.128;4.220;2022-11-13T01:26:37;18.98;;;15.60;;
41323;SDS011;27073;51.128;4.220;2022-11-13T01:29:21;22.73;;;16.48;;
41323;SDS011;27073;51.128;4.220;2022-11-13T01:32:05;21.15;;;16.58;;
41323;SDS011;27073;51.128;4.220;2022-11-13T01:34:49;19.67;;;15.90;;
41323;SDS011;27073;51.128;4.220;2022-11-13T01:37:33;21.80;;;17.02;;
41323;SDS011;27073;51.128;4.220;2022-11-13T01:40:17;19.75;;;16.35;;
41323;SDS011;27073;51.128;4.220;2022-11-13T01:43:13;18.00;;;16.10;;
41323;SDS011;27073;51.128;4.220;2022-11-13T01:46:10;19.15;;;16.00;;
41323;SDS011;27073;51.128;4.220;2022-11-13T01:49:14;18.25;;;15.50;;
41323;SDS011;27073;51.128;4.220;2022-11-13T01:52:08;21.90;;;16.37;;
41323;SDS011;27073;51.128;4.220;2022-11-13T01:54:56;19.13;;;17.00;;
41323;SDS011;27073;51.128;4.220;2022-11-13T01:57:43;18.55;;;16.00;;
41323;SDS011;27073;51.128;4.220;2022-11-13T02:00:28;19.98;;;17.13;;
41323;SDS011;27073;51.128;4.220;2022-11-13T02:03:13;19.13;;;16.23;;
41323;SDS011;27073;51.128;4.220;2022-11-13T02:05:57;20.33;;;16.50;;
41323;SDS011;27073;51.128;4.220;2022-11-13T02:08:41;19.42;;;15.02;;
41323;SDS011;27073;51.128;4.220;2022-11-13T02:11:27;19.52;;;16.40;;
41323;SDS011;27073;51.128;4.220;2022-11-13T02:14:11;19.15;;;15.98;;
41323;SDS011;27073;51.128;4.220;2022-11-13T02:17:01;21.00;;;16.35;;
41323;SDS011;27073;51.128;4.220;2022-11-13T02:19:49;20.30;;;16.42;;
41323;SDS011;27073;51.128;4.220;2022-11-13T02:25:44;20.27;;;16.30;;
41323;SDS011;27073;51.128;4.220;2022-11-13T02:28:32;17.27;;;15.13;;
41323;SDS011;27073;51.128;4.220;2022-11-13T02:31:16;23.17;;;15.52;;
41323;SDS011;27073;51.128;4.220;2022-11-13T02:34:01;18.48;;;14.98;;
41323;SDS011;27073;51.128;4.220;2022-11-13T02:36:45;17.75;;;14.48;;
41323;SDS011;27073;51.128;4.220;2022-11-13T02:39:30;19.67;;;15.18;;
41323;SDS011;27073;51.128;4.220;2022-11-13T02:42:14;19.40;;;15.50;;
41323;SDS011;27073;51.128;4.220;2022-11-13T02:44:58;18.48;;;14.77;;
41323;SDS011;27073;51.128;4.220;2022-11-13T02:47:42;17.13;;;15.32;;
41323;SDS011;27073;51.128;4.220;2022-11-13T02:50:26;21.23;;;15.27;;
41323;SDS011;27073;51.128;4.220;2022-11-13T02:53:11;17.70;;;15.27;;
41323;SDS011;27073;51.128;4.220;2022-11-13T02:55:56;18.73;;;15.23;;
41323;SDS011;27073;51.128;4.220;2022-11-13T02:58:40;18.98;;;14.77;;
41323;SDS011;27073;51.128;4.220;2022-11-13T03:01:24;18.50;;;14.68;;
41323;SDS011;27073;51.128;4.220;2022-11-13T03:04:08;17.27;;;14.70;;
41323;SDS011;27073;51.128;4.220;2022-11-13T03:06:52;17.52;;;14.43;;
41323;SDS011;27073;51.128;4.220;2022-11-13T03:09:36;16.20;;;14.35;;
41323;SDS011;27073;51.128;4.220;2022-11-13T03:12:21;17.55;;;15.65;;
41323;SDS011;27073;51.128;4.220;2022-11-13T03:15:06;16.33;;;14.63;;
41323;SDS011;27073;51.128;4.220;2022-11-13T03:17:52;16.20;;;14.32;;
41323;SDS011;27073;51.128;4.220;2022-11-13T03:20:36;18.30;;;14.65;;
41323;SDS011;27073;51.128;4.220;2022-11-13T03:23:22;18.15;;;14.65;;
41323;SDS011;27073;51.128;4.220;2022-11-13T03:26:07;16.88;;;14.15;;
41323;SDS011;27073;51.128;4.220;2022-11-13T03:28:53;16.10;;;12.80;;
41323;SDS011;27073;51.128;4.220;2022-11-13T03:31:38;18.98;;;13.93;;
41323;SDS011;27073;51.128;4.220;2022-11-13T03:34:22;15.15;;;13.55;;
41323;SDS011;27073;51.128;4.220;2022-11-13T03:37:06;16.90;;;14.95;;
41323;SDS011;27073;51.128;4.220;2022-11-13T03:39:50;17.10;;;14.13;;
41323;SDS011;27073;51.128;4.220;2022-11-13T03:42:34;19.83;;;16.08;;
41323;SDS011;27073;51.128;4.220;2022-11-13T03:45:19;18.65;;;15.35;;
41323;SDS011;27073;51.128;4.220;2022-11-13T03:48:03;17.75;;;14.85;;
41323;SDS011;27073;51.128;4.220;2022-11-13T03:50:48;18.40;;;15.48;;
41323;SDS011;27073;51.128;4.220;2022-11-13T03:53:35;20.38;;;14.48;;
41323;SDS011;27073;51.128;4.220;2022-11-13T03:56:19;17.00;;;14.02;;
41323;SDS011;27073;51.128;4.220;2022-11-13T03:59:03;16.08;;;14.23;;
41323;SDS011;27073;51.128;4.220;2022-11-13T04:01:47;15.80;;;13.27;;
41323;SDS011;27073;51.128;4.220;2022-11-13T04:04:32;16.48;;;13.38;;
41323;SDS011;27073;51.128;4.220;2022-11-13T04:07:16;17.60;;;14.02;;
41323;SDS011;27073;51.128;4.220;2022-11-13T04:10:00;16.58;;;14.43;;
41323;SDS011;27073;51.128;4.220;2022-11-13T04:12:44;14.98;;;12.95;;
41323;SDS011;27073;51.128;4.220;2022-11-13T04:15:29;15.82;;;13.45;;
41323;SDS011;27073;51.128;4.220;2022-11-13T04:18:13;22.88;;;15.93;;
41323;SDS011;27073;51.128;4.220;2022-11-13T04:20:58;22.20;;;15.77;;
41323;SDS011;27073;51.128;4.220;2022-11-13T04:23:47;19.17;;;15.10;;
41323;SDS011;27073;51.128;4.220;2022-11-13T04:26:31;19.40;;;15.00;;
41323;SDS011;27073;51.128;4.220;2022-11-13T04:29:15;16.27;;;14.50;;
41323;SDS011;27073;51.128;4.220;2022-11-13T04:31:59;16.77;;;14.65;;
41323;SDS011;27073;51.128;4.220;2022-11-13T04:34:43;17.20;;;14.52;;
41323;SDS011;27073;51.128;4.220;2022-11-13T04:37:27;16.35;;;13.52;;
41323;SDS011;27073;51.128;4.220;2022-11-13T04:40:11;15.80;;;13.30;;
41323;SDS011;27073;51.128;4.220;2022-11-13T04:42:56;17.42;;;14.60;;
41323;SDS011;27073;51.128;4.220;2022-11-13T04:45:40;16.63;;;13.77;;
41323;SDS011;27073;51.128;4.220;2022-11-13T04:48:24;14.60;;;12.32;;
41323;SDS011;27073;51.128;4.220;2022-11-13T04:51:08;14.68;;;12.75;;
41323;SDS011;27073;51.128;4.220;2022-11-13T04:53:52;14.45;;;12.82;;
41323;SDS011;27073;51.128;4.220;2022-11-13T04:56:36;14.23;;;12.73;;
41323;SDS011;27073;51.128;4.220;2022-11-13T04:59:20;14.63;;;12.00;;
41323;SDS011;27073;51.128;4.220;2022-11-13T05:02:04;18.52;;;13.95;;
41323;SDS011;27073;51.128;4.220;2022-11-13T05:04:48;17.88;;;12.57;;
41323;SDS011;27073;51.128;4.220;2022-11-13T05:07:32;17.65;;;13.82;;
41323;SDS011;27073;51.128;4.220;2022-11-13T05:10:17;14.55;;;12.50;;
41323;SDS011;27073;51.128;4.220;2022-11-13T05:13:01;14.85;;;12.85;;
41323;SDS011;27073;51.128;4.220;2022-11-13T05:15:45;16.15;;;12.55;;
41323;SDS011;27073;51.128;4.220;2022-11-13T05:18:29;16.88;;;11.85;;
41323;SDS011;27073;51.128;4.220;2022-11-13T05:21:15;16.02;;;12.15;;
41323;SDS011;27073;51.128;4.220;2022-11-13T05:23:59;13.55;;;11.68;;
41323;SDS011;27073;51.128;4.220;2022-11-13T05:26:44;14.05;;;12.00;;
41323;SDS011;27073;51.128;4.220;2022-11-13T05:29:29;13.93;;;12.30;;
41323;SDS011;27073;51.128;4.220;2022-11-13T05:32:13;13.32;;;11.68;;
41323;SDS011;27073;51.128;4.220;2022-11-13T05:34:57;13.80;;;11.80;;
41323;SDS011;27073;51.128;4.220;2022-11-13T05:37:41;14.07;;;12.45;;
41323;SDS011;27073;51.128;4.220;2022-11-13T05:40:25;13.73;;;12.10;;
41323;SDS011;27073;51.128;4.220;2022-11-13T05:43:09;17.25;;;11.35;;
41323;SDS011;27073;51.128;4.220;2022-11-13T05:46:03;13.70;;;12.20;;
41323;SDS011;27073;51.128;4.220;2022-11-13T05:48:51;13.38;;;11.68;;
41323;SDS011;27073;51.128;4.220;2022-11-13T05:51:39;15.18;;;11.70;;
41323;SDS011;27073;51.128;4.220;2022-11-13T05:54:24;15.18;;;12.35;;
41323;SDS011;27073;51.128;4.220;2022-11-13T05:57:08;15.75;;;13.27;;
41323;SDS011;27073;51.128;4.220;2022-11-13T05:59:52;13.35;;;11.95;;
41323;SDS011;27073;51.128;4.220;2022-11-13T06:02:36;14.65;;;12.52;;
41323;SDS011;27073;51.128;4.220;2022-11-13T06:05:20;16.13;;;12.65;;
41323;SDS011;27073;51.128;4.220;2022-11-13T06:08:04;15.52;;;12.73;;
41323;SDS011;27073;51.128;4.220;2022-11-13T06:10:48;15.32;;;12.40;;
41323;SDS011;27073;51.128;4.220;2022-11-13T06:13:32;13.52;;;12.13;;
41323;SDS011;27073;51.128;4.220;2022-11-13T06:16:17;14.38;;;12.60;;
41323;SDS011;27073;51.128;4.220;2022-11-13T06:19:07;14.52;;;12.52;;
41323;SDS011;27073;51.128;4.220;2022-11-13T06:21:53;20.25;;;13.70;;
41323;SDS011;27073;51.128;4.220;2022-11-13T06:24:37;15.82;;;13.18;;
41323;SDS011;27073;51.128;4.220;2022-11-13T06:27:21;15.38;;;13.18;;
41323;SDS011;27073;51.128;4.220;2022-11-13T06:30:05;15.25;;;13.65;;
41323;SDS011;27073;51.128;4.220;2022-11-13T06:32:50;19.00;;;14.30;;
41323;SDS011;27073;51.128;4.220;2022-11-13T06:35:36;20.98;;;14.18;;
41323;SDS011;27073;51.128;4.220;2022-11-13T06:38:20;16.17;;;13.85;;
41323;SDS011;27073;51.128;4.220;2022-11-13T06:41:04;15.70;;;12.90;;
41323;SDS011;27073;51.128;4.220;2022-11-13T06:43:49;14.15;;;12.65;;
41323;SDS011;27073;51.128;4.220;2022-11-13T06:46:34;15.77;;;13.10;;
41323;SDS011;27073;51.128;4.220;2022-11-13T06:49:18;14.07;;;12.57;;
41323;SDS011;27073;51.128;4.220;2022-11-13T06:52:02;17.58;;;12.98;;
41323;SDS011;27073;51.128;4.220;2022-11-13T06:54:47;17.27;;;13.50;;
41323;SDS011;27073;51.128;4.220;2022-11-13T06:57:32;15.15;;;13.20;;
41323;SDS011;27073;51.128;4.220;2022-11-13T07:00:17;23.30;;;16.30;;
41323;SDS011;27073;51.128;4.220;2022-11-13T07:03:01;25.48;;;16.92;;
41323;SDS011;27073;51.128;4.220;2022-11-13T07:05:46;32.42;;;19.70;;
41323;SDS011;27073;51.128;4.220;2022-11-13T07:08:30;37.15;;;21.42;;
41323;SDS011;27073;51.128;4.220;2022-11-13T07:11:15;61.60;;;22.42;;
41323;SDS011;27073;51.128;4.220;2022-11-13T07:14:01;78.50;;;23.35;;
41323;SDS011;27073;51.128;4.220;2022-11-13T07:16:45;60.00;;;21.08;;
41323;SDS011;27073;51.128;4.220;2022-11-13T07:19:29;75.05;;;22.08;;
41323;SDS011;27073;51.128;4.220;2022-11-13T07:22:13;52.55;;;20.80;;
41323;SDS011;27073;51.128;4.220;2022-11-13T07:24:57;58.17;;;20.25;;
41323;SDS011;27073;51.128;4.220;2022-11-13T07:27:44;74.32;;;20.50;;
41323;SDS011;27073;51.128;4.220;2022-11-13T07:30:28;138.27;;;21.10;;
41323;SDS011;27073;51.128;4.220;2022-11-13T07:33:12;71.97;;;19.10;;
41323;SDS011;27073;51.128;4.220;2022-11-13T07:35:57;75.32;;;18.60;;
41323;SDS011;27073;51.128;4.220;2022-11-13T07:38:42;65.82;;;17.73;;
41323;SDS011;27073;51.128;4.220;2022-11-13T07:41:26;70.18;;;18.42;;
41323;SDS011;27073;51.128;4.220;2022-11-13T07:44:10;94.63;;;22.13;;
41323;SDS011;27073;51.128;4.220;2022-11-13T07:46:54;47.15;;;19.50;;
41323;SDS011;27073;51.128;4.220;2022-11-13T07:49:38;43.38;;;18.58;;
41323;SDS011;27073;51.128;4.220;2022-11-13T07:52:22;48.22;;;17.50;;
41323;SDS011;27073;51.128;4.220;2022-11-13T07:55:08;36.97;;;17.90;;
41323;SDS011;27073;51.128;4.220;2022-11-13T07:57:55;30.35;;;18.33;;
41323;SDS011;27073;51.128;4.220;2022-11-13T08:00:40;33.95;;;17.85;;
41323;SDS011;27073;51.128;4.220;2022-11-13T08:03:25;22.05;;;18.20;;
41323;SDS011;27073;51.128;4.220;2022-11-13T08:06:09;23.52;;;17.98;;
41323;SDS011;27073;51.128;4.220;2022-11-13T08:08:53;21.48;;;17.00;;
41323;SDS011;27073;51.128;4.220;2022-11-13T08:11:37;26.83;;;18.55;;
41323;SDS011;27073;51.128;4.220;2022-11-13T08:14:21;26.13;;;19.27;;
41323;SDS011;27073;51.128;4.220;2022-11-13T08:17:05;29.55;;;19.60;;
41323;SDS011;27073;51.128;4.220;2022-11-13T08:19:49;27.83;;;19.90;;
41323;SDS011;27073;51.128;4.220;2022-11-13T08:22:34;26.20;;;21.33;;
41323;SDS011;27073;51.128;4.220;2022-11-13T08:25:18;34.25;;;23.42;;
41323;SDS011;27073;51.128;4.220;2022-11-13T08:28:02;28.25;;;20.45;;
41323;SDS011;27073;51.128;4.220;2022-11-13T08:30:46;27.52;;;21.27;;
41323;SDS011;27073;51.128;4.220;2022-11-13T08:33:31;29.02;;;21.30;;
41323;SDS011;27073;51.128;4.220;2022-11-13T08:36:15;31.98;;;21.73;;
41323;SDS011;27073;51.128;4.220;2022-11-13T08:38:59;32.80;;;21.42;;
41323;SDS011;27073;51.128;4.220;2022-11-13T08:41:43;26.67;;;20.42;;
41323;SDS011;27073;51.128;4.220;2022-11-13T08:44:27;21.33;;;18.67;;
41323;SDS011;27073;51.128;4.220;2022-11-13T08:47:11;26.00;;;18.85;;
41323;SDS011;27073;51.128;4.220;2022-11-13T08:49:55;22.38;;;18.65;;
41323;SDS011;27073;51.128;4.220;2022-11-13T08:52:40;19.23;;;17.17;;
41323;SDS011;27073;51.128;4.220;2022-11-13T08:55:24;19.30;;;17.38;;
41323;SDS011;27073;51.128;4.220;2022-11-13T08:58:09;18.90;;;16.58;;
41323;SDS011;27073;51.128;4.220;2022-11-13T09:00:58;19.45;;;17.17;;
41323;SDS011;27073;51.128;4.220;2022-11-13T09:03:47;18.00;;;16.15;;
41323;SDS011;27073;51.128;4.220;2022-11-13T09:06:32;18.13;;;16.25;;
41323;SDS011;27073;51.128;4.220;2022-11-13T09:09:16;17.40;;;15.68;;
41323;SDS011;27073;51.128;4.220;2022-11-13T09:12:05;20.23;;;16.00;;
41323;SDS011;27073;51.128;4.220;2022-11-13T09:14:50;17.27;;;15.48;;
41323;SDS011;27073;51.128;4.220;2022-11-13T09:17:34;16.42;;;14.73;;
41323;SDS011;27073;51.128;4.220;2022-11-13T09:20:18;17.88;;;15.35;;
41323;SDS011;27073;51.128;4.220;2022-11-13T09:23:04;17.52;;;15.80;;
41323;SDS011;27073;51.128;4.220;2022-11-13T09:25:50;16.92;;;14.95;;
41323;SDS011;27073;51.128;4.220;2022-11-13T09:28:34;16.88;;;15.10;;
41323;SDS011;27073;51.128;4.220;2022-11-13T09:31:18;16.38;;;14.73;;
41323;SDS011;27073;51.128;4.220;2022-11-13T09:34:02;17.90;;;16.15;;
41323;SDS011;27073;51.128;4.220;2022-11-13T09:36:46;17.55;;;15.75;;
41323;SDS011;27073;51.128;4.220;2022-11-13T09:39:30;17.98;;;16.15;;
41323;SDS011;27073;51.128;4.220;2022-11-13T09:42:23;17.35;;;15.60;;
41323;SDS011;27073;51.128;4.220;2022-11-13T09:45:12;17.92;;;16.10;;
41323;SDS011;27073;51.128;4.220;2022-11-13T09:48:01;17.15;;;15.35;;
41323;SDS011;27073;51.128;4.220;2022-11-13T09:50:52;19.85;;;17.23;;
41323;SDS011;27073;51.128;4.220;2022-11-13T09:53:37;19.20;;;17.25;;
41323;SDS011;27073;51.128;4.220;2022-11-13T09:59:28;16.95;;;15.02;;
41323;SDS011;27073;51.128;4.220;2022-11-13T10:08:27;17.55;;;13.73;;
41323;SDS011;27073;51.128;4.220;2022-11-13T10:14:38;14.35;;;12.57;;
41323;SDS011;27073;51.128;4.220;2022-11-13T10:23:28;14.20;;;12.70;;
41323;SDS011;27073;51.128;4.220;2022-11-13T10:26:17;14.00;;;12.48;;
41323;SDS011;27073;51.128;4.220;2022-11-13T10:29:10;14.77;;;11.25;;
41323;SDS011;27073;51.128;4.220;2022-11-13T10:31:56;12.50;;;10.30;;
41323;SDS011;27073;51.128;4.220;2022-11-13T10:34:43;11.65;;;10.35;;
41323;SDS011;27073;51.128;4.220;2022-11-13T10:40:43;9.88;;;8.88;;
41323;SDS011;27073;51.128;4.220;2022-11-13T10:43:28;9.90;;;8.43;;
41323;SDS011;27073;51.128;4.220;2022-11-13T10:46:15;12.82;;;8.15;;
41323;SDS011;27073;51.128;4.220;2022-11-13T10:49:15;9.57;;;8.57;;
41323;SDS011;27073;51.128;4.220;2022-11-13T10:52:15;9.88;;;8.77;;
41323;SDS011;27073;51.128;4.220;2022-11-13T10:58:23;9.80;;;8.30;;
41323;SDS011;27073;51.128;4.220;2022-11-13T11:01:21;11.55;;;8.10;;
41323;SDS011;27073;51.128;4.220;2022-11-13T11:04:11;9.93;;;8.15;;
41323;SDS011;27073;51.128;4.220;2022-11-13T11:07:02;8.60;;;7.32;;
41323;SDS011;27073;51.128;4.220;2022-11-13T11:09:55;9.75;;;7.55;;
41323;SDS011;27073;51.128;4.220;2022-11-13T11:12:39;9.40;;;7.53;;
41323;SDS011;27073;51.128;4.220;2022-11-13T11:15:25;8.55;;;7.75;;
41323;SDS011;27073;51.128;4.220;2022-11-13T11:18:30;9.65;;;8.25;;
41323;SDS011;27073;51.128;4.220;2022-11-13T11:21:21;9.57;;;8.18;;
41323;SDS011;27073;51.128;4.220;2022-11-13T11:24:17;8.57;;;7.60;;
41323;SDS011;27073;51.128;4.220;2022-11-13T11:27:17;10.93;;;8.18;;
41323;SDS011;27073;51.128;4.220;2022-11-13T11:30:07;9.25;;;7.93;;
41323;SDS011;27073;51.128;4.220;2022-11-13T11:33:19;11.57;;;8.30;;
41323;SDS011;27073;51.128;4.220;2022-11-13T11:42:07;11.27;;;8.43;;
41323;SDS011;27073;51.128;4.220;2022-11-13T11:47:56;8.60;;;7.13;;
41323;SDS011;27073;51.128;4.220;2022-11-13T11:54:11;7.43;;;6.05;;
41323;SDS011;27073;51.128;4.220;2022-11-13T12:00:16;6.30;;;5.70;;
41323;SDS011;27073;51.128;4.220;2022-11-13T12:09:46;6.30;;;5.05;;
41323;SDS011;27073;51.128;4.220;2022-11-13T12:22:20;7.18;;;5.45;;
41323;SDS011;27073;51.128;4.220;2022-11-13T12:36:19;7.20;;;6.38;;
41323;SDS011;27073;51.128;4.220;2022-11-13T12:51:15;6.57;;;5.30;;
41323;SDS011;27073;51.128;4.220;2022-11-13T12:54:00;6.20;;;4.80;;
41323;SDS011;27073;51.128;4.220;2022-11-13T12:56:44;5.90;;;4.55;;
41323;SDS011;27073;51.128;4.220;2022-11-13T12:59:36;6.43;;;4.90;;
41323;SDS011;27073;51.128;4.220;2022-11-13T13:02:37;6.10;;;5.47;;
41323;SDS011;27073;51.128;4.220;2022-11-13T13:09:02;5.40;;;4.05;;
41323;SDS011;27073;51.128;4.220;2022-11-13T13:12:28;5.15;;;4.10;;
41323;SDS011;27073;51.128;4.220;2022-11-13T13:15:32;6.63;;;4.20;;
41323;SDS011;27073;51.128;4.220;2022-11-13T13:21:15;5.13;;;3.00;;
41323;SDS011;27073;51.128;4.220;2022-11-13T13:24:08;4.95;;;3.47;;
41323;SDS011;27073;51.128;4.220;2022-11-13T13:27:24;3.30;;;2.70;;
41323;SDS011;27073;51.128;4.220;2022-11-13T13:30:14;3.88;;;3.47;;
41323;SDS011;27073;51.128;4.220;2022-11-13T13:33:15;3.97;;;3.45;;
41323;SDS011;27073;51.128;4.220;2022-11-13T13:45:08;5.63;;;3.85;;
41323;SDS011;27073;51.128;4.220;2022-11-13T13:47:57;5.40;;;3.60;;
41323;SDS011;27073;51.128;4.220;2022-11-13T13:50:46;5.43;;;3.58;;
41323;SDS011;27073;51.128;4.220;2022-11-13T13:53:33;5.75;;;3.42;;
41323;SDS011;27073;51.128;4.220;2022-11-13T13:56:19;5.10;;;4.22;;
41323;SDS011;27073;51.128;4.220;2022-11-13T13:59:09;4.40;;;3.90;;
41323;SDS011;27073;51.128;4.220;2022-11-13T14:02:12;5.93;;;3.75;;
41323;SDS011;27073;51.128;4.220;2022-11-13T14:05:15;4.95;;;3.67;;
41323;SDS011;27073;51.128;4.220;2022-11-13T14:08:16;5.82;;;3.65;;
41323;SDS011;27073;51.128;4.220;2022-11-13T14:14:05;4.32;;;3.50;;
41323;SDS011;27073;51.128;4.220;2022-11-13T14:16:59;5.30;;;4.22;;
41323;SDS011;27073;51.128;4.220;2022-11-13T14:19:48;4.72;;;4.22;;
41323;SDS011;27073;51.128;4.220;2022-11-13T14:22:32;6.13;;;4.80;;
41323;SDS011;27073;51.128;4.220;2022-11-13T14:25:19;5.45;;;4.57;;
41323;SDS011;27073;51.128;4.220;2022-11-13T14:28:20;5.00;;;4.28;;
41323;SDS011;27073;51.128;4.220;2022-11-13T14:31:07;5.55;;;4.55;;
41323;SDS011;27073;51.128;4.220;2022-11-13T14:33:53;5.00;;;4.47;;
41323;SDS011;27073;51.128;4.220;2022-11-13T14:36:38;6.30;;;4.57;;
41323;SDS011;27073;51.128;4.220;2022-11-13T14:39:27;8.05;;;4.30;;
41323;SDS011;27073;51.128;4.220;2022-11-13T14:42:18;6.35;;;5.28;;
41323;SDS011;27073;51.128;4.220;2022-11-13T14:45:26;5.63;;;4.57;;
41323;SDS011;27073;51.128;4.220;2022-11-13T14:48:17;5.85;;;4.80;;
41323;SDS011;27073;51.128;4.220;2022-11-13T14:54:35;7.70;;;5.65;;
41323;SDS011;27073;51.128;4.220;2022-11-13T14:57:20;7.72;;;4.43;;
41323;SDS011;27073;51.128;4.220;2022-11-13T15:00:11;6.63;;;5.22;;
41323;SDS011;27073;51.128;4.220;2022-11-13T15:02:59;9.82;;;5.47;;
41323;SDS011;27073;51.128;4.220;2022-11-13T15:05:45;6.78;;;5.18;;
41323;SDS011;27073;51.128;4.220;2022-11-13T15:08:29;9.63;;;6.07;;
41323;SDS011;27073;51.128;4.220;2022-11-13T15:11:14;8.35;;;5.75;;
41323;SDS011;27073;51.128;4.220;2022-11-13T15:13:59;7.43;;;5.45;;
41323;SDS011;27073;51.128;4.220;2022-11-13T15:16:44;6.38;;;4.65;;
41323;SDS011;27073;51.128;4.220;2022-11-13T15:19:31;6.88;;;5.15;;
41323;SDS011;27073;51.128;4.220;2022-11-13T15:22:18;10.60;;;5.60;;
41323;SDS011;27073;51.128;4.220;2022-11-13T15:25:02;12.30;;;5.78;;
41323;SDS011;27073;51.128;4.220;2022-11-13T15:27:49;10.25;;;6.45;;
41323;SDS011;27073;51.128;4.220;2022-11-13T15:30:33;7.95;;;6.57;;
41323;SDS011;27073;51.128;4.220;2022-11-13T15:33:18;11.23;;;6.82;;
41323;SDS011;27073;51.128;4.220;2022-11-13T15:36:02;9.02;;;7.25;;
41323;SDS011;27073;51.128;4.220;2022-11-13T15:38:46;7.57;;;6.65;;
41323;SDS011;27073;51.128;4.220;2022-11-13T15:41:31;7.82;;;5.93;;
41323;SDS011;27073;51.128;4.220;2022-11-13T15:44:16;8.65;;;7.13;;
41323;SDS011;27073;51.128;4.220;2022-11-13T15:47:01;8.52;;;6.97;;
41323;SDS011;27073;51.128;4.220;2022-11-13T15:49:45;9.95;;;8.85;;
41323;SDS011;27073;51.128;4.220;2022-11-13T15:52:34;9.82;;;8.88;;
41323;SDS011;27073;51.128;4.220;2022-11-13T15:55:24;12.50;;;8.77;;
41323;SDS011;27073;51.128;4.220;2022-11-13T15:58:13;11.88;;;9.32;;
41323;SDS011;27073;51.128;4.220;2022-11-13T16:00:58;12.63;;;10.20;;
41323;SDS011;27073;51.128;4.220;2022-11-13T16:03:43;13.73;;;10.45;;
41323;SDS011;27073;51.128;4.220;2022-11-13T16:06:28;14.77;;;11.25;;
41323;SDS011;27073;51.128;4.220;2022-11-13T16:09:14;14.57;;;10.20;;
41323;SDS011;27073;51.128;4.220;2022-11-13T16:11:58;14.18;;;9.70;;
41323;SDS011;27073;51.128;4.220;2022-11-13T16:14:44;11.65;;;10.45;;
41323;SDS011;27073;51.128;4.220;2022-11-13T16:17:28;13.80;;;11.90;;
41323;SDS011;27073;51.128;4.220;2022-11-13T16:20:15;15.90;;;12.50;;
41323;SDS011;27073;51.128;4.220;2022-11-13T16:23:00;20.88;;;15.32;;
41323;SDS011;27073;51.128;4.220;2022-11-13T16:25:45;42.92;;;32.95;;
41323;SDS011;27073;51.128;4.220;2022-11-13T16:28:30;49.55;;;37.45;;
41323;SDS011;27073;51.128;4.220;2022-11-13T16:31:14;41.00;;;28.98;;
41323;SDS011;27073;51.128;4.220;2022-11-13T16:33:58;37.45;;;28.75;;
41323;SDS011;27073;51.128;4.220;2022-11-13T16:36:42;25.83;;;19.83;;
41323;SDS011;27073;51.128;4.220;2022-11-13T16:39:27;136.93;;;97.30;;
41323;SDS011;27073;51.128;4.220;2022-11-13T16:42:12;44.53;;;32.80;;
41323;SDS011;27073;51.128;4.220;2022-11-13T16:44:57;23.25;;;17.15;;
41323;SDS011;27073;51.128;4.220;2022-11-13T16:47:41;20.85;;;17.48;;
41323;SDS011;27073;51.128;4.220;2022-11-13T16:50:29;25.45;;;20.90;;
41323;SDS011;27073;51.128;4.220;2022-11-13T16:53:15;22.50;;;19.58;;
41323;SDS011;27073;51.128;4.220;2022-11-13T16:55:59;27.73;;;24.65;;
41323;SDS011;27073;51.128;4.220;2022-11-13T16:58:44;27.58;;;23.90;;
41323;SDS011;27073;51.128;4.220;2022-11-13T17:01:28;29.00;;;23.25;;
41323;SDS011;27073;51.128;4.220;2022-11-13T17:04:12;27.98;;;24.85;;
41323;SDS011;27073;51.128;4.220;2022-11-13T17:06:57;32.20;;;28.27;;
41323;SDS011;27073;51.128;4.220;2022-11-13T17:09:42;35.47;;;31.63;;
41323;SDS011;27073;51.128;4.220;2022-11-13T17:12:27;33.63;;;29.98;;
41323;SDS011;27073;51.128;4.220;2022-11-13T17:15:11;40.63;;;35.35;;
41323;SDS011;27073;51.128;4.220;2022-11-13T17:17:56;50.42;;;40.38;;
41323;SDS011;27073;51.128;4.220;2022-11-13T17:20:41;64.93;;;48.25;;
41323;SDS011;27073;51.128;4.220;2022-11-13T17:23:25;51.90;;;42.63;;
41323;SDS011;27073;51.128;4.220;2022-11-13T17:26:09;45.50;;;40.35;;
41323;SDS011;27073;51.128;4.220;2022-11-13T17:28:54;42.10;;;37.58;;
41323;SDS011;27073;51.128;4.220;2022-11-13T17:31:38;35.67;;;31.65;;
41323;SDS011;27073;51.128;4.220;2022-11-13T17:34:23;33.72;;;28.23;;
41323;SDS011;27073;51.128;4.220;2022-11-13T17:37:08;31.33;;;26.27;;
41323;SDS011;27073;51.128;4.220;2022-11-13T17:39:53;31.38;;;26.50;;
41323;SDS011;27073;51.128;4.220;2022-11-13T17:42:37;33.15;;;26.10;;
41323;SDS011;27073;51.128;4.220;2022-11-13T17:45:21;27.52;;;24.15;;
41323;SDS011;27073;51.128;4.220;2022-11-13T17:48:05;26.60;;;23.30;;
41323;SDS011;27073;51.128;4.220;2022-11-13T17:50:56;26.33;;;22.20;;
41323;SDS011;27073;51.128;4.220;2022-11-13T17:53:42;24.95;;;21.45;;
41323;SDS011;27073;51.128;4.220;2022-11-13T17:56:26;25.98;;;21.70;;
41323;SDS011;27073;51.128;4.220;2022-11-13T17:59:10;27.77;;;21.23;;
41323;SDS011;27073;51.128;4.220;2022-11-13T18:01:55;26.17;;;20.75;;
41323;SDS011;27073;51.128;4.220;2022-11-13T18:04:39;26.02;;;23.23;;
41323;SDS011;27073;51.128;4.220;2022-11-13T18:07:24;28.40;;;22.08;;